Terminal Aerodrome Forecast
Issued by NWS

Home | Current Version | Previous Version | Text Only | Print | Product List | Glossary On
Versions: 1 2 3 4 5 6 7 8 9 10 11 12 13 14 15 16 17 18 19 20 21 22 23 24 25 26
188
FTUS42 KTAE 220527
TAFECP
TAF
KECP 220527Z 2206/2306 VRB05KT 6SM -SHRA VCTS BKN015CB
     FM221000 21012KT 3SM TSRA OVC015CB
     FM221700 22025G35KT 6SM -RA OVC015
     FM222200 24020G30KT P6SM BKN030
     FM230200 24014G20KT P6SM SCT040=

USA.gov is the U.S. government's official web portal to all federal, state and local government web resources and services.